Terminal Aerodrome Forecast
Issued by NWS

Home | Current Version | Previous Version | Text Only | Print | Product List | Glossary On
Versions: 1 2 3 4 5 6 7 8 9 10 11 12 13 14 15 16 17 18 19 20 21 22
000
FTUS45 KCYS 202300
TAFLAR
TAF
KLAR 202340Z 2100/2124 05011KT P6SM SKC
     FM210600 15007KT P6SM FEW200
     FM211000 16010KT P6SM FEW015
     FM211400 15014KT P6SM SCT150=

USA.gov is the U.S. government's official web portal to all federal, state and local government web resources and services.